East Jordan, MI

12:45 AM EDT on May 04, 2015 (GMT -0400)
Harbor Springs | | Change Station
CLOSE
Current Station
Airport
Location: Harbor Springs,
Elevation: 686 ft
Nearby Weather Stations

Elev 686 ft 45.43 °N, 84.91 °W | Updated 11 minutes ago

Mostly Cloudy
Mostly Cloudy
66 °F
Feels Like 66 °F
N
7
Wind Variable Wind from West

Today
High -- | Low -- °F
--% Chance of Precip.
Yesterday
High -- | Low -- °F
Precip. -- in
6:25 AM 8:50 PM
Full, 100% visible
Pressure 29.89 in
Visibility 10.0 miles
Clouds Overcast 8000 ft
Dew Point 49 °F
Humidity 54%
Rainfall 0.00 in
Snow Depth Not available.
UV 0 out of 12
Pollen 11.10 out of 12
Air Quality Not available.
Flu Activity Regional
METAR KMGN 040434Z AUTO 27006KT 10SM OVC080 18/09 A2989 RMK AO2 T01910095

More Conditions Fewer Conditions

Pressure 29.89 in
Visibility 10.0 miles
Clouds Overcast 8000 ft
Dew Point 49 °F
Humidity 54%
Rainfall 0.00 in
Snow Depth Not available.
UV 0 out of 12
Pollen 11.10 out of 12
Air Quality Not available.
Flu Activity Regional
METAR KMGN 040434Z AUTO 27006KT 10SM OVC080 18/09 A2989 RMK AO2 T01910095

More Conditions Fewer Conditions

Nepal has a long way to go to dig out and rebuild from a devastating earthquake. We have teamed up with several charities and organizations to make contributing to the relief effort as easy as possible.
How you can help: Portlight Strategies | Red Cross
Nowcast | as of 12:00 am EDT on May 4, 2015

At 1 am...showers and chance of thunderstorms. Temperature 57. Southwest winds 9 mph. At 3 am...showers and chance of thunderstorms. Temperature 53. Southwest winds 8 mph. At 5 am...showers likely and chance of thunderstorms. Temperature 52. Southwest winds 7 mph. At 7 am...showers likely and chance of thunderstorms. Temperature 51. West winds 8 mph.

×

10-Day Weather Forecast

Almanac

Astronomy

May. 04, 2015 Rise Set
Actual Time
Civil Twilight
Nautical Twilight
Astronomical Twilight
Moon
Length of Visible Light
Length of Day
Tomorrow will be .
, % of the Moon is Illuminated

Today's Extremes

State Highs State Lows

Community

WunderPhotos

Upload Photos

1,818,524 photos uploaded!

WunderBlogs® & News

Nearby

Air Quality

  Air Quality AQ Index Pollutant
Not available.

Snow Depth

Station Depth Elevation

Earthquake Activity

City Distance Mag. Time & Date
Minimum magnitude displayed is 2.5.

Coastal Water Temperatures

Place Temperature

Stations

Nearby Weather Stations

Station Location Temp. Windchill Dew Point Humidity Wind Precip. Elev Updated Type